createdAt,value
2022-09-17T00:01:48.310Z,23.90
2022-09-17T00:04:17.749Z,23.80
2022-09-17T00:06:47.213Z,23.80
2022-09-17T00:09:17.110Z,23.70
2022-09-17T00:11:46.057Z,23.80
2022-09-17T00:14:18.929Z,23.70
2022-09-17T00:16:50.997Z,23.60
2022-09-17T00:19:23.267Z,23.50
2022-09-17T00:21:52.923Z,23.60
2022-09-17T00:24:23.189Z,23.60
2022-09-17T00:26:53.915Z,23.60
2022-09-17T00:29:24.382Z,23.60
2022-09-17T00:31:53.474Z,23.60
2022-09-17T00:34:22.397Z,23.50
2022-09-17T00:36:51.533Z,23.50
2022-09-17T00:39:20.573Z,23.50
2022-09-17T00:41:49.851Z,23.60
2022-09-17T00:44:43.659Z,23.60
2022-09-17T00:47:30.933Z,23.60
2022-09-17T00:50:03.404Z,23.60
2022-09-17T00:52:37.306Z,23.50
2022-09-17T00:55:14.802Z,23.60
2022-09-17T00:57:46.049Z,23.60
2022-09-17T01:00:18.417Z,23.60
2022-09-17T01:02:48.021Z,23.30
2022-09-17T01:05:18.428Z,23.10
2022-09-17T01:07:59.275Z,23.00
2022-09-17T01:10:44.712Z,23.00
2022-09-17T01:13:24.327Z,22.90
2022-09-17T01:16:02.935Z,22.90
2022-09-17T01:18:42.758Z,22.90
2022-09-17T01:21:37.310Z,23.00
2022-09-17T01:24:48.059Z,23.00
2022-09-17T01:28:02.302Z,22.90
2022-09-17T01:30:56.338Z,22.80
2022-09-17T01:33:32.187Z,22.80
2022-09-17T01:36:15.366Z,22.90
2022-09-17T01:38:50.253Z,23.00
2022-09-17T01:41:30.414Z,22.90
2022-09-17T01:44:05.960Z,22.80
2022-09-17T01:46:42.632Z,22.80
2022-09-17T01:49:14.346Z,22.80
2022-09-17T01:51:47.752Z,22.90
2022-09-17T01:54:21.445Z,22.80
2022-09-17T01:56:55.681Z,22.90
2022-09-17T01:59:29.905Z,22.90
2022-09-17T02:02:05.670Z,22.90
2022-09-17T02:04:39.066Z,23.00
2022-09-17T02:07:16.407Z,22.90
2022-09-17T02:09:48.066Z,23.00
2022-09-17T02:12:23.199Z,22.80
2022-09-17T02:14:55.349Z,22.80
2022-09-17T02:17:32.263Z,22.90
2022-09-17T02:20:02.462Z,22.90
2022-09-17T02:22:38.454Z,22.90
2022-09-17T02:25:16.904Z,22.90
2022-09-17T02:27:53.853Z,22.90
2022-09-17T02:30:23.142Z,22.90
2022-09-17T02:32:53.559Z,22.90
2022-09-17T02:35:23.222Z,22.80
2022-09-17T02:37:53.708Z,22.70
2022-09-17T02:40:28.047Z,22.70
2022-09-17T02:43:09.861Z,22.80
2022-09-17T02:45:50.120Z,22.90
2022-09-17T02:49:01.500Z,22.90
2022-09-17T02:51:39.741Z,22.90
2022-09-17T02:54:19.864Z,22.80
2022-09-17T02:56:57.407Z,22.70
2022-09-17T02:59:33.400Z,22.70
2022-09-17T03:02:09.243Z,22.50
2022-09-17T03:04:41.653Z,22.60
2022-09-17T03:07:15.032Z,22.70
2022-09-17T03:09:44.557Z,22.70
2022-09-17T03:12:14.559Z,22.70
2022-09-17T03:14:43.809Z,22.60
2022-09-17T03:17:15.012Z,22.60
2022-09-17T03:19:44.068Z,22.60
2022-09-17T03:22:14.741Z,22.40
2022-09-17T03:24:43.628Z,22.40
2022-09-17T03:27:13.005Z,22.30
2022-09-17T03:29:42.156Z,22.30
2022-09-17T03:32:11.328Z,22.20
2022-09-17T03:34:40.292Z,22.20
2022-09-17T03:37:09.605Z,22.10
2022-09-17T03:39:39.855Z,22.20
2022-09-17T03:42:08.811Z,22.10
2022-09-17T03:44:39.026Z,22.00
2022-09-17T03:47:09.741Z,22.00
2022-09-17T03:49:38.604Z,21.90
2022-09-17T03:52:07.653Z,21.90
2022-09-17T03:54:36.623Z,22.00
2022-09-17T03:57:07.085Z,21.90
2022-09-17T03:59:36.015Z,21.90
2022-09-17T04:02:05.078Z,22.00
2022-09-17T04:04:34.366Z,22.00
2022-09-17T04:07:03.232Z,22.00
2022-09-17T04:09:33.463Z,22.10
2022-09-17T04:12:04.834Z,22.10
2022-09-17T04:14:35.440Z,22.10
2022-09-17T04:17:04.780Z,22.30
2022-09-17T04:19:34.255Z,22.30
2022-09-17T04:22:03.084Z,22.30
2022-09-17T04:24:32.673Z,22.30
2022-09-17T04:27:02.148Z,22.20
2022-09-17T04:29:31.137Z,22.30
2022-09-17T04:32:02.639Z,22.30
2022-09-17T04:34:32.177Z,22.20
2022-09-17T04:37:01.166Z,22.30
2022-09-17T04:39:30.320Z,22.20
2022-09-17T04:41:59.761Z,22.20
2022-09-17T04:44:28.665Z,22.20
2022-09-17T04:46:57.812Z,22.00
2022-09-17T04:49:30.034Z,22.00
2022-09-17T04:51:58.921Z,22.00
2022-09-17T04:54:27.759Z,22.00
2022-09-17T04:56:56.602Z,21.90
2022-09-17T04:59:25.632Z,21.90
2022-09-17T05:01:55.167Z,21.90
2022-09-17T05:04:24.126Z,22.00
2022-09-17T05:06:55.021Z,22.10
2022-09-17T05:09:24.063Z,21.90
2022-09-17T05:11:53.623Z,21.90
2022-09-17T05:14:23.169Z,21.90
2022-09-17T05:16:52.068Z,21.90
2022-09-17T05:19:21.845Z,21.90
2022-09-17T05:21:50.922Z,21.90
2022-09-17T05:24:21.348Z,21.90
2022-09-17T05:26:50.581Z,21.90
2022-09-17T05:29:19.528Z,21.90
2022-09-17T05:31:48.713Z,21.90
2022-09-17T05:34:18.028Z,22.10
2022-09-17T05:36:46.935Z,22.00
2022-09-17T05:39:15.853Z,22.00
2022-09-17T05:41:46.141Z,22.00
2022-09-17T05:44:18.097Z,22.10
2022-09-17T05:46:48.077Z,22.20
2022-09-17T05:49:17.148Z,22.20
2022-09-17T05:51:45.997Z,22.00
2022-09-17T05:54:14.921Z,22.10
2022-09-17T05:56:43.715Z,22.10
2022-09-17T05:59:15.672Z,22.10
2022-09-17T06:01:44.941Z,22.20
2022-09-17T06:04:14.422Z,22.30
2022-09-17T06:06:43.427Z,22.30
2022-09-17T06:09:12.974Z,22.30
2022-09-17T06:11:42.251Z,22.10
2022-09-17T06:14:11.279Z,22.10
2022-09-17T06:16:41.900Z,22.10
2022-09-17T06:19:11.046Z,22.10
2022-09-17T06:21:40.768Z,22.20
2022-09-17T06:24:11.985Z,22.20
2022-09-17T06:26:41.361Z,22.10
2022-09-17T06:29:10.519Z,22.00
2022-09-17T06:31:41.255Z,22.00
2022-09-17T06:34:10.160Z,22.00
2022-09-17T06:36:39.007Z,22.10
2022-09-17T06:39:08.721Z,22.20
2022-09-17T06:41:38.329Z,22.20
2022-09-17T06:44:07.235Z,22.10
2022-09-17T06:46:36.446Z,22.10
2022-09-17T06:49:06.992Z,22.10
2022-09-17T06:51:36.022Z,22.20
2022-09-17T06:54:05.235Z,22.10
2022-09-17T06:56:34.934Z,22.20
2022-09-17T06:59:04.356Z,22.20
2022-09-17T07:01:33.405Z,22.20
2022-09-17T07:04:02.385Z,22.20
2022-09-17T07:06:33.362Z,22.40
2022-09-17T07:09:02.873Z,22.40
2022-09-17T07:11:33.796Z,22.20
2022-09-17T07:14:03.122Z,21.90
2022-09-17T07:16:33.278Z,21.70
2022-09-17T07:19:02.953Z,21.70
2022-09-17T07:21:33.889Z,21.70
2022-09-17T07:24:04.249Z,22.00
2022-09-17T07:26:33.840Z,21.90
2022-09-17T07:29:02.615Z,22.20
2022-09-17T07:31:32.232Z,22.40
2022-09-17T07:34:02.004Z,22.40
2022-09-17T07:36:33.041Z,22.60
2022-09-17T07:39:03.070Z,22.60
2022-09-17T07:41:32.727Z,22.60
2022-09-17T07:44:02.848Z,22.60
2022-09-17T07:46:32.071Z,22.40
2022-09-17T07:49:01.281Z,22.30
2022-09-17T07:51:30.994Z,22.20
2022-09-17T07:54:02.508Z,21.80
2022-09-17T07:56:31.661Z,22.00
2022-09-17T07:59:00.895Z,22.10
2022-09-17T08:01:29.959Z,22.10
2022-09-17T08:03:59.135Z,22.50
2022-09-17T08:06:29.561Z,22.60
2022-09-17T08:09:00.108Z,22.80
2022-09-17T08:14:27.022Z,22.90
2022-09-17T08:16:58.586Z,22.70
2022-09-17T08:19:28.861Z,22.50
2022-09-17T08:21:58.641Z,22.70
2022-09-17T08:24:28.298Z,23.00
2022-09-17T08:26:59.183Z,23.20
2022-09-17T08:29:30.103Z,23.20
2022-09-17T08:32:02.505Z,23.20
2022-09-17T08:34:31.594Z,23.30
2022-09-17T08:37:00.555Z,23.30
2022-09-17T08:39:29.861Z,23.30
2022-09-17T08:42:11.170Z,23.40
2022-09-17T08:44:43.657Z,23.30
2022-09-17T08:47:19.681Z,23.40
2022-09-17T08:49:54.145Z,23.60
2022-09-17T08:52:55.071Z,23.70
2022-09-17T08:55:39.179Z,23.60
2022-09-17T08:58:42.202Z,23.50
2022-09-17T09:01:28.945Z,23.40
2022-09-17T09:04:22.815Z,23.40
2022-09-17T09:06:56.360Z,23.80
2022-09-17T09:09:30.279Z,24.00
2022-09-17T09:12:06.520Z,24.40
2022-09-17T09:14:41.041Z,24.60
2022-09-17T09:17:12.612Z,24.60
2022-09-17T09:19:45.635Z,24.30
2022-09-17T09:22:29.776Z,24.00
2022-09-17T09:25:07.715Z,24.20
2022-09-17T09:27:47.622Z,24.30
2022-09-17T09:30:23.797Z,24.40
2022-09-17T09:33:00.013Z,24.80
2022-09-17T09:35:31.748Z,25.00
2022-09-17T09:38:06.820Z,24.90
2022-09-17T09:40:42.305Z,25.10
2022-09-17T09:43:19.014Z,25.30
2022-09-17T09:46:11.456Z,25.60
2022-09-17T09:48:47.882Z,25.60
2022-09-17T09:51:30.728Z,25.70
2022-09-17T09:54:14.894Z,25.60
2022-09-17T09:56:55.287Z,25.40
2022-09-17T09:59:24.822Z,25.50
2022-09-17T10:01:55.640Z,25.20
2022-09-17T10:04:27.044Z,25.30
2022-09-17T10:07:03.397Z,25.40
2022-09-17T10:09:34.645Z,25.50
2022-09-17T10:12:07.589Z,25.80
2022-09-17T10:14:38.638Z,25.90
2022-09-17T10:17:24.889Z,25.50
2022-09-17T10:20:22.119Z,25.80
2022-09-17T10:22:52.133Z,26.10
2022-09-17T10:25:33.690Z,26.00
2022-09-17T10:28:06.826Z,26.20
2022-09-17T10:30:36.947Z,26.50
2022-09-17T10:33:25.305Z,26.30
2022-09-17T10:36:04.730Z,25.80
2022-09-17T10:38:39.322Z,25.70
2022-09-17T10:41:22.016Z,25.70
2022-09-17T10:43:52.274Z,26.10
2022-09-17T10:46:28.049Z,26.00
2022-09-17T10:49:11.853Z,26.20
2022-09-17T10:51:41.257Z,26.30
2022-09-17T10:54:42.379Z,26.40
2022-09-17T10:57:18.718Z,26.60
2022-09-17T11:00:13.430Z,26.60
2022-09-17T11:03:17.747Z,26.80
2022-09-17T11:06:15.680Z,27.40
2022-09-17T11:08:56.498Z,27.40
2022-09-17T11:11:38.119Z,27.60
2022-09-17T11:14:18.058Z,27.70
2022-09-17T11:16:55.989Z,27.40
2022-09-17T11:19:37.342Z,27.50
2022-09-17T11:22:13.661Z,27.10
2022-09-17T11:25:05.232Z,27.00
2022-09-17T11:27:53.236Z,27.00
2022-09-17T11:30:24.364Z,27.10
2022-09-17T11:33:29.987Z,27.10
2022-09-17T11:36:04.759Z,27.10
2022-09-17T11:38:43.420Z,27.30
2022-09-17T11:41:16.624Z,26.90
2022-09-17T11:43:52.867Z,27.20
2022-09-17T11:46:26.765Z,27.50
2022-09-17T11:49:01.192Z,28.00
2022-09-17T11:51:34.894Z,28.20
2022-09-17T11:54:10.250Z,28.00
2022-09-17T11:56:44.747Z,28.10
2022-09-17T11:59:20.000Z,28.10
2022-09-17T12:01:54.482Z,27.90
2022-09-17T12:04:42.628Z,27.80
2022-09-17T12:07:21.490Z,28.30
2022-09-17T12:09:56.735Z,28.20
2022-09-17T12:12:48.564Z,27.80
2022-09-17T12:15:20.041Z,27.70
2022-09-17T12:18:14.376Z,27.90
2022-09-17T12:20:49.508Z,28.00
2022-09-17T12:23:26.920Z,28.20
2022-09-17T12:26:09.544Z,27.90
2022-09-17T12:28:50.599Z,27.60
2022-09-17T12:31:28.479Z,27.80
2022-09-17T12:34:04.208Z,28.00
2022-09-17T12:36:48.657Z,27.70
2022-09-17T12:39:52.955Z,28.00
2022-09-17T12:42:40.135Z,28.30
2022-09-17T12:45:49.960Z,28.40
2022-09-17T12:48:49.921Z,28.70
2022-09-17T12:51:35.482Z,28.70
2022-09-17T12:54:18.329Z,28.70
2022-09-17T12:57:00.159Z,28.40
2022-09-17T12:59:33.826Z,28.20
2022-09-17T13:02:06.613Z,28.20
2022-09-17T13:05:02.307Z,27.90
2022-09-17T13:08:01.292Z,28.00
2022-09-17T13:11:06.794Z,27.50
2022-09-17T13:13:43.477Z,27.20
2022-09-17T13:16:20.573Z,27.00
2022-09-17T13:19:16.552Z,26.80
2022-09-17T13:21:54.731Z,26.90
2022-09-17T13:24:25.977Z,26.90
2022-09-17T13:26:56.875Z,26.70
2022-09-17T13:29:59.864Z,26.50
2022-09-17T13:32:52.901Z,26.50
2022-09-17T13:35:50.564Z,26.70
2022-09-17T13:38:23.889Z,26.70
2022-09-17T13:40:54.568Z,26.60
2022-09-17T13:43:28.342Z,26.30
2022-09-17T13:46:29.103Z,26.70
2022-09-17T13:49:03.139Z,26.70
2022-09-17T13:51:52.255Z,26.50
2022-09-17T13:54:24.830Z,26.00
2022-09-17T13:57:11.130Z,26.20
2022-09-17T13:59:52.936Z,26.20
2022-09-17T14:02:40.452Z,26.20
2022-09-17T14:05:38.485Z,25.60
2022-09-17T14:08:28.883Z,25.80
2022-09-17T14:11:00.557Z,25.60
2022-09-17T14:13:54.394Z,25.60
2022-09-17T14:16:35.949Z,25.60
2022-09-17T14:19:29.359Z,25.70
2022-09-17T14:22:03.158Z,25.70
2022-09-17T14:24:38.348Z,25.50
2022-09-17T14:27:33.047Z,25.50
2022-09-17T14:30:13.568Z,25.60
2022-09-17T14:32:48.687Z,25.80
2022-09-17T14:35:25.213Z,25.70
2022-09-17T14:38:01.723Z,25.80
2022-09-17T14:40:34.714Z,25.70
2022-09-17T14:43:04.945Z,25.90
2022-09-17T14:45:38.406Z,25.80
2022-09-17T14:48:31.258Z,25.80
2022-09-17T14:51:25.049Z,25.60
2022-09-17T14:56:57.220Z,25.50
2022-09-17T14:59:34.997Z,25.60
2022-09-17T15:02:05.115Z,25.70
2022-09-17T15:04:34.083Z,25.30
2022-09-17T15:07:11.142Z,25.30
2022-09-17T15:09:40.391Z,25.20
2022-09-17T15:12:10.911Z,25.40
2022-09-17T15:14:41.179Z,25.70
2022-09-17T15:17:17.201Z,25.50
2022-09-17T15:19:50.367Z,25.50
2022-09-17T15:22:24.849Z,25.70
2022-09-17T15:24:56.946Z,25.60
2022-09-17T15:27:30.925Z,25.50
2022-09-17T15:30:04.374Z,25.50
2022-09-17T15:32:34.693Z,25.60
2022-09-17T15:35:28.394Z,25.60
2022-09-17T15:40:49.605Z,25.60
2022-09-17T15:43:26.969Z,25.50
2022-09-17T15:45:58.450Z,25.50
2022-09-17T15:48:37.595Z,25.50
2022-09-17T15:51:08.350Z,25.50
2022-09-17T15:53:38.101Z,25.40
2022-09-17T15:56:09.738Z,25.30
2022-09-17T15:58:55.464Z,25.40
2022-09-17T16:01:52.376Z,25.30
2022-09-17T16:04:27.206Z,25.40
2022-09-17T16:07:02.385Z,25.30
2022-09-17T16:09:44.062Z,25.40
2022-09-17T16:12:15.428Z,25.20
2022-09-17T16:14:54.072Z,25.10
2022-09-17T16:17:29.597Z,25.00
2022-09-17T16:20:02.497Z,24.80
2022-09-17T16:22:34.795Z,24.90
2022-09-17T16:25:04.197Z,24.80
2022-09-17T16:27:37.116Z,24.80
2022-09-17T16:30:10.410Z,24.80
2022-09-17T16:32:40.119Z,24.90
2022-09-17T16:35:13.950Z,25.00
2022-09-17T16:37:45.613Z,24.90
2022-09-17T16:40:15.305Z,25.00
2022-09-17T16:42:44.367Z,24.90
2022-09-17T16:45:15.082Z,24.90
2022-09-17T16:47:45.030Z,24.90
2022-09-17T16:50:16.401Z,24.70
2022-09-17T16:52:46.073Z,24.90
2022-09-17T16:55:16.989Z,24.90
2022-09-17T16:57:46.147Z,24.80
2022-09-17T17:00:19.829Z,24.70
2022-09-17T17:02:55.701Z,24.90
2022-09-17T17:05:25.098Z,24.80
2022-09-17T17:07:55.406Z,24.90
2022-09-17T17:10:26.727Z,24.70
2022-09-17T17:12:55.635Z,24.70
2022-09-17T17:15:26.095Z,24.70
2022-09-17T17:17:55.485Z,24.80
2022-09-17T17:20:24.575Z,24.80
2022-09-17T17:22:53.685Z,24.80
2022-09-17T17:25:23.859Z,24.80
2022-09-17T17:27:52.860Z,24.70
2022-09-17T17:30:22.203Z,24.80
2022-09-17T17:32:54.054Z,25.00
2022-09-17T17:35:23.807Z,24.90
2022-09-17T17:37:52.816Z,24.50
2022-09-17T17:40:22.260Z,24.70
2022-09-17T17:42:53.902Z,24.70
2022-09-17T17:45:23.009Z,24.60
2022-09-17T17:47:53.913Z,24.60
2022-09-17T17:50:22.846Z,24.40
2022-09-17T17:52:55.007Z,24.60
2022-09-17T17:55:24.817Z,24.40
2022-09-17T17:58:01.059Z,24.40
2022-09-17T18:00:30.903Z,24.50
2022-09-17T18:03:01.341Z,24.40
2022-09-17T18:05:30.449Z,24.20
2022-09-17T18:07:59.802Z,24.30
2022-09-17T18:10:29.652Z,24.40
2022-09-17T18:12:58.612Z,24.40
2022-09-17T18:15:27.659Z,24.50
2022-09-17T18:17:56.835Z,24.20
2022-09-17T18:20:27.485Z,24.20
2022-09-17T18:22:56.866Z,24.20
2022-09-17T18:25:25.779Z,24.00
2022-09-17T18:27:54.925Z,24.10
2022-09-17T18:30:23.956Z,24.10
2022-09-17T18:32:53.324Z,24.10
2022-09-17T18:35:23.471Z,24.10
2022-09-17T18:37:53.867Z,24.00
2022-09-17T18:40:22.766Z,24.20
2022-09-17T18:42:51.680Z,24.20
2022-09-17T18:45:20.732Z,24.00
2022-09-17T18:47:49.789Z,24.10
2022-09-17T18:50:19.058Z,24.00
2022-09-17T18:52:48.824Z,24.00
2022-09-17T18:55:19.157Z,24.00
2022-09-17T18:57:51.365Z,23.90
2022-09-17T19:00:21.821Z,24.00
2022-09-17T19:02:50.849Z,23.80
2022-09-17T19:05:20.102Z,23.90
2022-09-17T19:07:49.646Z,24.10
2022-09-17T19:10:20.067Z,24.00
2022-09-17T19:12:50.191Z,24.10
2022-09-17T19:15:19.317Z,23.90
2022-09-17T19:17:48.493Z,23.80
2022-09-17T19:20:19.882Z,23.80
2022-09-17T19:22:51.223Z,23.90
2022-09-17T19:25:22.274Z,23.90
2022-09-17T19:27:54.254Z,24.00
2022-09-17T19:30:23.527Z,24.20
2022-09-17T19:32:52.552Z,24.20
2022-09-17T19:35:21.861Z,24.10
2022-09-17T19:37:51.792Z,24.10
2022-09-17T19:40:22.215Z,24.20
2022-09-17T19:42:54.852Z,24.00
2022-09-17T19:45:24.151Z,24.00
2022-09-17T19:47:56.529Z,24.00
2022-09-17T19:50:25.609Z,23.90
2022-09-17T19:52:54.959Z,24.00
2022-09-17T19:55:25.793Z,24.10
2022-09-17T19:57:54.618Z,24.00
2022-09-17T20:00:23.686Z,23.90
2022-09-17T20:02:52.920Z,23.80
2022-09-17T20:05:22.022Z,23.90
2022-09-17T20:07:50.944Z,23.80
2022-09-17T20:10:19.922Z,23.90
2022-09-17T20:12:50.347Z,24.00
2022-09-17T20:15:19.566Z,24.10
2022-09-17T20:17:48.407Z,23.90
2022-09-17T20:20:17.811Z,24.00
2022-09-17T20:22:49.062Z,24.00
2022-09-17T20:25:18.051Z,24.00
2022-09-17T20:27:47.472Z,24.00
2022-09-17T20:30:18.084Z,24.00
2022-09-17T20:32:48.031Z,24.00
2022-09-17T20:35:17.326Z,24.10
2022-09-17T20:40:35.995Z,23.90
2022-09-17T20:43:04.955Z,24.00
2022-09-17T20:45:35.399Z,24.00
2022-09-17T20:48:04.530Z,24.00
2022-09-17T20:50:33.461Z,24.00
2022-09-17T20:53:02.412Z,24.00
2022-09-17T20:55:32.529Z,24.00
2022-09-17T20:58:01.472Z,23.90
2022-09-17T21:00:31.220Z,23.70
2022-09-17T21:03:01.956Z,23.80
2022-09-17T21:05:31.009Z,23.70
2022-09-17T21:07:59.811Z,23.70
2022-09-17T21:10:28.882Z,23.70
2022-09-17T21:12:57.761Z,23.70
2022-09-17T21:15:26.811Z,23.80
2022-09-17T21:17:55.774Z,23.80
2022-09-17T21:20:26.187Z,23.90
2022-09-17T21:22:55.549Z,24.00
2022-09-17T21:25:24.578Z,23.90
2022-09-17T21:27:53.523Z,23.90
2022-09-17T21:30:23.346Z,23.90
2022-09-17T21:32:53.637Z,24.00
2022-09-17T21:35:22.805Z,23.80
2022-09-17T21:37:53.693Z,23.80
2022-09-17T21:40:23.020Z,23.90
2022-09-17T21:42:51.993Z,23.80
2022-09-17T21:45:21.259Z,23.80
2022-09-17T21:47:51.478Z,23.90
2022-09-17T21:50:20.551Z,23.80
2022-09-17T21:52:49.447Z,23.80
2022-09-17T21:55:19.896Z,23.70
2022-09-17T21:57:49.077Z,23.90
2022-09-17T22:00:23.202Z,23.70
2022-09-17T22:02:52.561Z,23.80
2022-09-17T22:05:21.506Z,24.00
2022-09-17T22:07:50.556Z,23.90
2022-09-17T22:10:20.983Z,23.90
2022-09-17T22:12:49.895Z,24.00
2022-09-17T22:15:18.816Z,24.00
2022-09-17T22:17:47.688Z,23.80
2022-09-17T22:20:16.849Z,23.90
2022-09-17T22:22:45.836Z,23.70
2022-09-17T22:25:14.825Z,23.70
2022-09-17T22:28:04.003Z,23.60
2022-09-17T22:30:37.195Z,23.70
2022-09-17T22:33:06.519Z,23.60
2022-09-17T22:35:35.472Z,23.80
2022-09-17T22:38:04.460Z,23.70
2022-09-17T22:40:33.298Z,23.80
2022-09-17T22:43:03.824Z,23.90
2022-09-17T22:45:32.867Z,23.80
2022-09-17T22:48:01.975Z,23.70
2022-09-17T22:50:30.996Z,23.80
2022-09-17T22:52:59.956Z,23.80
2022-09-17T22:55:29.222Z,23.60
2022-09-17T22:57:58.129Z,23.70
2022-09-17T23:00:29.290Z,23.70
2022-09-17T23:02:58.233Z,23.50
2022-09-17T23:05:27.270Z,23.20
2022-09-17T23:07:56.327Z,23.20
2022-09-17T23:10:25.378Z,23.20
2022-09-17T23:12:55.823Z,23.30
2022-09-17T23:15:27.639Z,23.30
2022-09-17T23:17:57.955Z,23.20
2022-09-17T23:20:27.001Z,23.20
2022-09-17T23:22:55.916Z,23.20
2022-09-17T23:25:25.466Z,23.20
2022-09-17T23:27:56.099Z,23.20
2022-09-17T23:30:26.830Z,23.30
2022-09-17T23:32:57.761Z,23.20
2022-09-17T23:35:27.583Z,23.20
2022-09-17T23:37:56.468Z,23.30
2022-09-17T23:40:28.903Z,23.20
2022-09-17T23:42:58.256Z,23.10
2022-09-17T23:45:27.100Z,23.20
2022-09-17T23:47:57.749Z,23.10
2022-09-17T23:50:26.809Z,23.10
2022-09-17T23:52:55.833Z,23.30
2022-09-17T23:55:24.838Z,23.30
2022-09-17T23:57:53.935Z,23.20
